Time;durP1;ratioP1;P1;durP2;ratioP2;P2;SDS_P1;SDS_P2;PMS_P1;PMS_P2;Temp;Humidity;BMP_temperature;BMP_pressure;BME280_temperature;BME280_humidity;BME280_pressure;Samples;Min_cycle;Max_cycle;Signal;HPM_P1;HPM_P2
2021/10/21 00:01:41;;;;;;;5.78;2.22;;;15.30;99.90;;;;;;5113877;28;20358;-62
2021/10/21 00:04:07;;;;;;;6.75;2.10;;;15.30;99.90;;;;;;5114036;28;20482;-61
2021/10/21 00:06:33;;;;;;;4.55;2.30;;;15.30;99.90;;;;;;5114243;28;20397;-61
2021/10/21 00:08:58;;;;;;;4.90;2.38;;;15.40;99.90;;;;;;5113439;28;20028;-62
2021/10/21 00:11:24;;;;;;;5.85;2.60;;;15.40;99.90;;;;;;5113705;28;20027;-60
2021/10/21 00:13:50;;;;;;;6.15;2.38;;;15.50;99.90;;;;;;5113910;28;20024;-61
2021/10/21 00:16:15;;;;;;;3.75;2.30;;;15.50;99.90;;;;;;5113670;28;20038;-62
2021/10/21 00:18:41;;;;;;;7.95;3.47;;;15.50;99.90;;;;;;5113590;28;20024;-58
2021/10/21 00:21:07;;;;;;;4.28;2.13;;;15.50;99.90;;;;;;5113551;28;20115;-61
2021/10/21 00:23:33;;;;;;;4.78;2.50;;;15.60;99.90;;;;;;5113599;28;20023;-61
2021/10/21 00:26:00;;;;;;;7.47;2.92;;;15.60;99.90;;;;;;5112769;28;20073;-61
2021/10/21 00:28:25;;;;;;;4.70;2.53;;;15.60;99.90;;;;;;5113516;28;20043;-59
2021/10/21 00:30:51;;;;;;;12.30;2.45;;;15.60;99.90;;;;;;5113209;28;20070;-59
2021/10/21 00:33:16;;;;;;;9.45;2.47;;;15.60;99.90;;;;;;5113476;28;20015;-62
2021/10/21 00:35:42;;;;;;;9.65;2.60;;;15.60;99.90;;;;;;5113396;28;20154;-59
2021/10/21 00:38:07;;;;;;;4.25;2.80;;;15.60;99.90;;;;;;5113090;28;20115;-61
2021/10/21 00:40:33;;;;;;;6.30;2.58;;;15.60;99.90;;;;;;5113240;28;20132;-60
2021/10/21 00:42:59;;;;;;;8.98;2.88;;;15.60;99.90;;;;;;5113226;28;20059;-62
2021/10/21 00:45:25;;;;;;;5.68;2.70;;;15.40;99.90;;;;;;5113382;28;20076;-60
2021/10/21 00:47:50;;;;;;;5.70;2.60;;;15.30;99.90;;;;;;5113287;28;20501;-60
2021/10/21 00:50:16;;;;;;;6.47;2.28;;;15.20;99.90;;;;;;5113121;28;20020;-61
2021/10/21 00:52:41;;;;;;;9.20;3.05;;;15.10;99.90;;;;;;5113455;28;20048;-62
2021/10/21 00:55:08;;;;;;;7.00;2.88;;;15.00;99.90;;;;;;5112986;28;20068;-61
2021/10/21 00:57:36;;;;;;;5.57;2.15;;;15.00;99.90;;;;;;5109746;28;20022;-61
2021/10/21 01:00:02;;;;;;;5.22;2.17;;;15.00;99.90;;;;;;5113300;28;20023;-61
2021/10/21 01:02:28;;;;;;;8.10;2.90;;;14.90;99.90;;;;;;5113785;28;20485;-62
2021/10/21 01:04:53;;;;;;;6.00;2.75;;;14.90;99.90;;;;;;5112799;28;20034;-61
2021/10/21 01:07:19;;;;;;;2.80;2.25;;;14.90;99.90;;;;;;5111958;28;20024;-62
2021/10/21 01:09:45;;;;;;;6.72;2.17;;;14.90;99.90;;;;;;5112691;28;20020;-62
2021/10/21 01:12:12;;;;;;;3.92;1.50;;;14.80;99.90;;;;;;5112601;28;20393;-60
2021/10/21 01:14:39;;;;;;;4.10;2.10;;;14.80;99.90;;;;;;5112665;28;20092;-61
2021/10/21 01:17:04;;;;;;;4.25;2.50;;;14.80;99.90;;;;;;5112321;28;20020;-59
2021/10/21 01:19:31;;;;;;;2.40;2.00;;;14.70;99.90;;;;;;5112421;28;20392;-61
2021/10/21 01:21:57;;;;;;;3.15;2.50;;;14.70;99.90;;;;;;5112468;28;20020;-60
2021/10/21 01:24:24;;;;;;;4.68;2.55;;;14.60;99.90;;;;;;5112518;28;20072;-60
2021/10/21 01:26:51;;;;;;;5.22;2.30;;;14.50;99.90;;;;;;5112392;28;20022;-61
2021/10/21 01:29:19;;;;;;;7.65;3.00;;;14.50;99.90;;;;;;5112126;28;20035;-60
2021/10/21 01:31:46;;;;;;;5.15;2.17;;;14.40;99.90;;;;;;5112400;28;20020;-60
2021/10/21 01:34:12;;;;;;;3.03;1.77;;;14.40;99.90;;;;;;5112220;28;20106;-61
2021/10/21 01:36:40;;;;;;;3.20;1.50;;;14.30;99.90;;;;;;5112040;28;20034;-61
2021/10/21 01:39:08;;;;;;;3.40;1.90;;;14.30;99.90;;;;;;5111951;28;20062;-61
2021/10/21 01:41:34;;;;;;;1.52;1.20;;;14.20;99.90;;;;;;5112161;28;20392;-61
2021/10/21 01:43:59;;;;;;;14.25;3.45;;;14.20;99.90;;;;;;5112040;28;20027;-59
2021/10/21 01:46:25;;;;;;;4.32;0.95;;;14.20;99.90;;;;;;5112161;28;20055;-62
2021/10/21 01:48:51;;;;;;;1.75;0.90;;;14.00;99.90;;;;;;5111989;28;20078;-60
2021/10/21 01:51:17;;;;;;;1.58;1.00;;;13.90;99.90;;;;;;5111652;28;20492;-60
2021/10/21 01:53:43;;;;;;;4.85;1.25;;;13.70;99.90;;;;;;5111974;28;20023;-59
2021/10/21 01:56:09;;;;;;;2.80;1.10;;;13.60;99.90;;;;;;5111969;28;20024;-59
2021/10/21 01:58:35;;;;;;;2.78;1.00;;;13.50;99.90;;;;;;5111634;28;20026;-60
2021/10/21 02:01:01;;;;;;;3.00;0.60;;;13.40;99.90;;;;;;5111693;28;20023;-58
2021/10/21 02:03:26;;;;;;;5.45;1.60;;;13.40;99.90;;;;;;5111640;28;20386;-60
2021/10/21 02:05:52;;;;;;;9.77;1.38;;;13.30;99.90;;;;;;5111778;28;20034;-61
2021/10/21 02:08:18;;;;;;;6.53;1.30;;;13.30;99.90;;;;;;5111021;28;20027;-60
2021/10/21 02:10:43;;;;;;;3.30;1.15;;;13.10;99.90;;;;;;5111548;28;20483;-60
2021/10/21 02:13:09;;;;;;;6.15;1.33;;;13.00;99.90;;;;;;5111482;28;20027;-59
2021/10/21 02:15:34;;;;;;;6.05;1.50;;;12.90;99.90;;;;;;5111461;28;20020;-57
2021/10/21 02:18:00;;;;;;;5.15;1.08;;;12.80;99.90;;;;;;5111304;28;20020;-59
2021/10/21 02:20:26;;;;;;;6.78;0.98;;;12.70;99.90;;;;;;5111492;28;20473;-61
2021/10/21 02:22:52;;;;;;;9.43;1.98;;;12.60;99.90;;;;;;5111474;28;20092;-59
2021/10/21 02:25:18;;;;;;;8.73;1.02;;;12.60;99.90;;;;;;5111402;28;20020;-60
2021/10/21 02:27:44;;;;;;;4.32;1.30;;;12.60;99.90;;;;;;5111013;28;20063;-58
2021/10/21 02:30:12;;;;;;;11.88;1.20;;;12.60;99.90;;;;;;5111387;28;20059;-60
2021/10/21 02:32:38;;;;;;;5.60;1.08;;;12.60;99.90;;;;;;5111241;28;20107;-59
2021/10/21 02:35:05;;;;;;;3.33;0.95;;;12.70;99.90;;;;;;5111267;28;20476;-59
2021/10/21 02:37:30;;;;;;;7.63;1.88;;;12.70;99.90;;;;;;5111009;28;20036;-59
2021/10/21 02:39:56;;;;;;;11.27;1.65;;;12.80;99.90;;;;;;5111234;28;20035;-61
2021/10/21 02:42:21;;;;;;;4.80;1.00;;;12.80;99.90;;;;;;5110988;28;20042;-60
2021/10/21 02:44:47;;;;;;;4.93;1.10;;;12.80;99.90;;;;;;5111402;28;20598;-60
2021/10/21 02:47:13;;;;;;;6.28;1.38;;;12.70;99.90;;;;;;5112195;28;20499;-60
2021/10/21 02:49:39;;;;;;;7.25;1.10;;;12.60;99.90;;;;;;5117950;28;20035;-59
2021/10/21 02:52:04;;;;;;;4.65;1.40;;;12.60;99.90;;;;;;5117761;28;20031;-59
2021/10/21 02:54:31;;;;;;;4.20;1.00;;;12.70;99.90;;;;;;5117926;28;20032;-57
2021/10/21 02:56:57;;;;;;;5.68;1.70;;;12.70;99.90;;;;;;5117813;28;20026;-60
2021/10/21 02:59:22;;;;;;;6.82;1.88;;;12.70;99.90;;;;;;5117700;28;20023;-61
2021/10/21 03:01:48;;;;;;;3.20;1.20;;;12.80;99.90;;;;;;5118019;28;20030;-59
2021/10/21 03:04:13;;;;;;;1.95;0.90;;;12.80;99.90;;;;;;5117829;28;20020;-59
2021/10/21 03:06:39;;;;;;;4.78;1.23;;;12.80;99.90;;;;;;5117894;28;20418;-61
2021/10/21 03:09:05;;;;;;;8.20;1.65;;;12.80;99.90;;;;;;5116983;28;20036;-58
2021/10/21 03:11:30;;;;;;;2.92;1.20;;;12.80;99.90;;;;;;5117573;28;20039;-59
2021/10/21 03:13:56;;;;;;;9.85;1.00;;;12.60;99.90;;;;;;5117784;28;20076;-57
2021/10/21 03:16:21;;;;;;;5.60;1.33;;;12.60;99.90;;;;;;5117729;28;20030;-59
2021/10/21 03:18:47;;;;;;;4.35;1.50;;;12.50;99.90;;;;;;5117843;28;20102;-60
2021/10/21 03:21:13;;;;;;;8.75;1.63;;;12.50;99.90;;;;;;5118995;28;20032;-61
2021/10/21 03:23:38;;;;;;;7.10;1.38;;;12.50;99.90;;;;;;5117941;28;20485;-60
2021/10/21 03:26:04;;;;;;;3.35;1.17;;;12.50;99.90;;;;;;5117630;28;20076;-59
2021/10/21 03:28:30;;;;;;;6.65;1.38;;;12.60;99.90;;;;;;5099160;28;20032;-59
2021/10/21 03:30:55;;;;;;;7.35;1.20;;;12.70;99.90;;;;;;5117490;28;20035;-58
2021/10/21 03:33:21;;;;;;;4.93;0.90;;;12.70;99.90;;;;;;5117509;28;20091;-60
2021/10/21 03:35:46;;;;;;;4.40;1.30;;;12.80;99.90;;;;;;5117577;28;20043;-59
2021/10/21 03:38:12;;;;;;;8.15;1.42;;;12.80;99.90;;;;;;5117229;28;20027;-61
2021/10/21 03:40:37;;;;;;;6.45;1.08;;;12.80;99.90;;;;;;5117516;28;20028;-60
2021/10/21 03:43:03;;;;;;;3.35;1.20;;;12.80;99.90;;;;;;5117515;28;20023;-60
2021/10/21 03:45:29;;;;;;;5.88;1.10;;;12.80;99.90;;;;;;5117489;28;20084;-59
2021/10/21 03:47:54;;;;;;;5.80;1.33;;;12.80;99.90;;;;;;5117221;28;20078;-59
2021/10/21 03:50:20;;;;;;;6.95;1.10;;;12.80;99.90;;;;;;5117356;28;20028;-60
2021/10/21 03:52:46;;;;;;;6.57;1.98;;;12.80;99.90;;;;;;5117177;28;20492;-59
2021/10/21 03:55:11;;;;;;;5.25;1.00;;;12.80;99.90;;;;;;5117559;28;20092;-61
2021/10/21 03:57:37;;;;;;;4.53;0.90;;;12.80;99.90;;;;;;5117049;28;20529;-60
2021/10/21 04:00:05;;;;;;;5.32;1.40;;;12.80;99.90;;;;;;5114729;28;20053;-59
2021/10/21 04:02:31;;;;;;;4.03;1.00;;;12.80;99.90;;;;;;5113793;28;20497;-59
2021/10/21 04:04:56;;;;;;;9.70;1.85;;;12.70;99.90;;;;;;5114283;28;20439;-59
2021/10/21 04:07:22;;;;;;;2.88;0.98;;;12.70;99.90;;;;;;5113293;28;20035;-58
2021/10/21 04:09:48;;;;;;;2.97;0.90;;;12.70;99.90;;;;;;5113923;28;20484;-58
2021/10/21 04:12:13;;;;;;;4.78;1.00;;;12.80;99.90;;;;;;5113806;28;20024;-58
2021/10/21 04:14:41;;;;;;;4.20;1.05;;;12.80;99.90;;;;;;5095813;28;20301;-59
2021/10/21 04:17:06;;;;;;;7.07;1.00;;;12.80;99.90;;;;;;5113584;28;20550;-58
2021/10/21 04:19:32;;;;;;;4.80;0.98;;;12.80;99.90;;;;;;5113685;28;20061;-59
2021/10/21 04:21:58;;;;;;;5.82;1.20;;;12.80;99.90;;;;;;5113800;28;20024;-60
2021/10/21 04:24:24;;;;;;;6.05;1.00;;;12.80;99.90;;;;;;5114051;28;20023;-60
2021/10/21 04:26:49;;;;;;;4.90;0.98;;;12.70;99.90;;;;;;5113714;28;20023;-59
2021/10/21 04:29:15;;;;;;;3.13;0.85;;;12.70;99.90;;;;;;5113319;28;20023;-60
2021/10/21 04:31:40;;;;;;;3.22;0.93;;;12.70;99.90;;;;;;5113380;28;20019;-58
2021/10/21 04:34:06;;;;;;;6.30;1.10;;;12.80;99.90;;;;;;5113326;28;20066;-56
2021/10/21 04:36:32;;;;;;;8.35;1.00;;;12.70;99.90;;;;;;5113482;28;20051;-60
2021/10/21 04:38:57;;;;;;;3.40;0.90;;;12.70;99.90;;;;;;5113201;28;20412;-57
2021/10/21 04:41:23;;;;;;;2.15;0.82;;;12.70;99.90;;;;;;5113592;28;20028;-56
2021/10/21 04:43:49;;;;;;;11.00;1.63;;;12.70;99.90;;;;;;5113359;28;20042;-60
2021/10/21 04:46:15;;;;;;;3.53;1.67;;;12.70;99.90;;;;;;5113211;28;20031;-60
2021/10/21 04:48:41;;;;;;;3.42;0.80;;;12.70;99.90;;;;;;5112932;28;20038;-59
2021/10/21 04:51:07;;;;;;;4.05;1.13;;;12.70;99.90;;;;;;5112995;28;20034;-60
2021/10/21 04:53:33;;;;;;;2.53;0.70;;;12.70;99.90;;;;;;5113004;28;20122;-60
2021/10/21 04:55:58;;;;;;;3.22;0.70;;;12.60;99.90;;;;;;5113356;28;20054;-61
2021/10/21 04:58:24;;;;;;;1.90;0.75;;;12.70;99.90;;;;;;5112867;28;20024;-59
2021/10/21 05:00:49;;;;;;;2.40;1.00;;;12.60;99.90;;;;;;5112879;28;20108;-56
2021/10/21 05:03:15;;;;;;;1.25;0.60;;;12.60;99.90;;;;;;5112929;28;20024;-61
2021/10/21 05:05:41;;;;;;;1.98;1.00;;;12.70;99.90;;;;;;5112897;28;20027;-59
2021/10/21 05:08:07;;;;;;;5.68;0.55;;;12.60;99.90;;;;;;5112190;28;20139;-59
2021/10/21 05:10:32;;;;;;;5.20;0.75;;;12.60;99.90;;;;;;5112200;28;20023;-60
2021/10/21 05:12:58;;;;;;;2.17;0.68;;;12.70;99.90;;;;;;5112903;28;20020;-62
2021/10/21 05:15:24;;;;;;;1.48;0.70;;;12.60;99.90;;;;;;5112767;28;20015;-60
2021/10/21 05:17:50;;;;;;;4.75;0.82;;;12.60;99.90;;;;;;5112886;28;20024;-60
2021/10/21 05:20:16;;;;;;;3.35;0.57;;;12.60;99.90;;;;;;5112679;28;20033;-60
2021/10/21 05:22:42;;;;;;;8.07;0.68;;;12.60;99.90;;;;;;5112750;28;20034;-60
2021/10/21 05:25:08;;;;;;;2.80;0.60;;;12.60;99.90;;;;;;5094314;28;20492;-59
2021/10/21 05:27:38;;;;;;;2.22;0.73;;;12.60;99.90;;;;;;5112078;28;20792;-56
2021/10/21 05:30:06;;;;;;;4.65;1.05;;;12.60;99.90;;;;;;5112248;28;20070;-60
2021/10/21 05:32:31;;;;;;;1.75;0.70;;;12.60;99.90;;;;;;5112159;28;20024;-60
2021/10/21 05:34:57;;;;;;;1.77;0.60;;;12.60;99.90;;;;;;5112475;28;20027;-59
2021/10/21 05:37:23;;;;;;;3.90;0.40;;;12.50;99.90;;;;;;5112067;28;20019;-61
2021/10/21 05:39:48;;;;;;;2.95;0.52;;;12.50;99.90;;;;;;5112129;28;20027;-61
2021/10/21 05:42:14;;;;;;;3.17;0.90;;;12.50;99.90;;;;;;5112077;28;20020;-59
2021/10/21 05:44:40;;;;;;;2.65;0.73;;;12.50;99.90;;;;;;5112020;28;20035;-61
2021/10/21 05:47:06;;;;;;;3.45;0.60;;;12.50;99.90;;;;;;5112031;28;20077;-61
2021/10/21 05:49:32;;;;;;;1.60;0.60;;;12.50;99.90;;;;;;5112256;28;20020;-62
2021/10/21 05:51:57;;;;;;;2.15;0.60;;;12.40;99.90;;;;;;5112157;28;20028;-61
2021/10/21 05:54:23;;;;;;;0.88;0.40;;;12.40;99.90;;;;;;5111896;28;20478;-61
2021/10/21 05:56:49;;;;;;;1.00;0.60;;;12.30;99.90;;;;;;5111865;28;20394;-61
2021/10/21 05:59:15;;;;;;;3.22;0.70;;;12.40;99.90;;;;;;5111413;28;20129;-60
2021/10/21 06:01:40;;;;;;;3.53;0.52;;;12.30;99.90;;;;;;5111809;28;20478;-61
2021/10/21 06:04:06;;;;;;;6.47;0.68;;;12.20;99.90;;;;;;5111789;28;20020;-61
2021/10/21 06:06:34;;;;;;;5.85;0.93;;;12.30;99.90;;;;;;5111789;28;20035;-61
2021/10/21 06:09:02;;;;;;;0.85;0.40;;;12.20;99.90;;;;;;5111101;28;20093;-61
2021/10/21 06:11:29;;;;;;;3.72;0.50;;;12.10;99.90;;;;;;5111499;28;20061;-61
2021/10/21 06:13:54;;;;;;;3.47;0.68;;;11.90;99.90;;;;;;5111571;28;20024;-60
2021/10/21 06:16:20;;;;;;;0.88;0.32;;;11.70;99.90;;;;;;5111632;28;20027;-62
2021/10/21 06:18:46;;;;;;;2.55;0.40;;;11.50;99.90;;;;;;5111279;28;20054;-59
2021/10/21 06:21:12;;;;;;;2.42;0.50;;;11.30;99.90;;;;;;5111427;28;20030;-61
2021/10/21 06:23:38;;;;;;;1.58;0.68;;;11.20;99.90;;;;;;5110336;28;20077;-59
2021/10/21 06:26:04;;;;;;;5.07;0.73;;;11.10;99.90;;;;;;5111453;28;20024;-62
2021/10/21 06:28:29;;;;;;;5.97;0.80;;;11.00;99.90;;;;;;5110997;28;20023;-57
2021/10/21 06:30:55;;;;;;;2.28;0.75;;;10.90;99.90;;;;;;5111349;28;20053;-59
2021/10/21 06:33:21;;;;;;;4.30;1.15;;;10.80;99.90;;;;;;5111507;28;20031;-59
2021/10/21 06:35:47;;;;;;;11.52;1.63;;;10.60;99.90;;;;;;5111405;28;20073;-61
2021/10/21 06:38:14;;;;;;;7.32;0.90;;;10.50;99.90;;;;;;5110927;28;20023;-61
2021/10/21 06:40:40;;;;;;;2.28;0.77;;;10.40;99.90;;;;;;5111184;28;20031;-61
2021/10/21 06:43:06;;;;;;;6.43;1.33;;;10.40;99.90;;;;;;5111021;28;20497;-61
2021/10/21 06:45:32;;;;;;;2.72;0.70;;;10.30;99.90;;;;;;5111055;28;20023;-61
2021/10/21 06:47:58;;;;;;;4.18;1.15;;;10.20;99.90;;;;;;5111004;28;20028;-61
2021/10/21 06:50:23;;;;;;;9.52;1.38;;;10.20;99.90;;;;;;5111071;28;20111;-61
2021/10/21 06:52:49;;;;;;;5.18;1.17;;;10.10;99.90;;;;;;5110617;28;20036;-62
2021/10/21 06:55:15;;;;;;;8.15;1.15;;;10.10;99.90;;;;;;5111320;28;20027;-61
2021/10/21 06:57:45;;;;;;;9.80;1.67;;;10.10;99.90;;;;;;5110668;28;20433;-61
2021/10/21 07:00:12;;;;;;;7.45;1.30;;;10.10;99.90;;;;;;5110950;28;20385;-60
2021/10/21 07:02:37;;;;;;;6.68;1.38;;;10.00;99.90;;;;;;5121911;22;20040;-59
2021/10/21 07:05:03;;;;;;;9.50;2.20;;;10.00;99.90;;;;;;5070275;28;20046;-58
2021/10/21 07:07:29;;;;;;;5.65;1.30;;;9.90;99.90;;;;;;5070068;28;20037;-61
2021/10/21 07:09:55;;;;;;;9.30;2.60;;;9.90;99.90;;;;;;5070337;28;20505;-61
2021/10/21 07:12:20;;;;;;;7.60;1.20;;;9.90;99.90;;;;;;5070403;28;20024;-61
2021/10/21 07:14:46;;;;;;;14.77;1.92;;;9.90;99.90;;;;;;5070472;28;20013;-59
2021/10/21 07:17:11;;;;;;;6.78;1.40;;;9.90;99.90;;;;;;5070132;28;20167;-59
2021/10/21 07:19:37;;;;;;;5.55;1.20;;;9.80;99.90;;;;;;5070098;28;20024;-60
2021/10/21 07:22:02;;;;;;;10.75;2.13;;;9.90;99.90;;;;;;5070467;28;20024;-60
2021/10/21 07:24:28;;;;;;;11.15;1.50;;;9.80;99.90;;;;;;5070191;28;20067;-59
2021/10/21 07:26:53;;;;;;;12.07;2.70;;;9.80;99.90;;;;;;5070228;28;20064;-59
2021/10/21 07:29:19;;;;;;;5.68;1.45;;;9.80;99.90;;;;;;5069880;28;20017;-59
2021/10/21 07:31:45;;;;;;;9.43;1.70;;;9.70;99.90;;;;;;5070061;28;20054;-59
2021/10/21 07:34:10;;;;;;;10.52;2.20;;;9.70;99.90;;;;;;5059264;28;20127;-57
2021/10/21 07:36:36;;;;;;;13.93;2.95;;;9.60;99.90;;;;;;5053813;28;20071;-60
2021/10/21 07:39:02;;;;;;;13.98;1.90;;;9.60;99.90;;;;;;5053377;28;20025;-59
2021/10/21 07:41:27;;;;;;;8.82;1.20;;;9.60;99.90;;;;;;5053613;28;20144;-59
2021/10/21 07:43:54;;;;;;;11.07;1.50;;;9.60;99.90;;;;;;5054044;28;20035;-59
2021/10/21 07:46:19;;;;;;;4.72;1.30;;;9.60;99.90;;;;;;5053526;28;20029;-59
2021/10/21 07:48:45;;;;;;;7.35;2.13;;;9.60;99.90;;;;;;5052957;28;20028;-59
2021/10/21 07:51:11;;;;;;;20.95;10.85;;;9.50;99.90;;;;;;5053359;28;20102;-59
2021/10/21 07:53:36;;;;;;;11.77;4.13;;;9.50;99.90;;;;;;5053362;28;20426;-59
2021/10/21 07:56:02;;;;;;;9.52;1.55;;;9.40;99.90;;;;;;5053496;28;20048;-59
2021/10/21 07:58:28;;;;;;;8.50;2.35;;;9.40;99.90;;;;;;5053082;28;20402;-59
2021/10/21 08:00:53;;;;;;;8.20;1.60;;;9.40;99.90;;;;;;5055004;28;20043;-59
2021/10/21 08:03:19;;;;;;;6.47;1.50;;;9.30;99.90;;;;;;5073182;28;20413;-60
2021/10/21 08:05:45;;;;;;;7.25;1.70;;;9.30;99.90;;;;;;5073349;28;20025;-59
2021/10/21 08:08:10;;;;;;;9.20;1.85;;;9.30;99.90;;;;;;5072685;28;20028;-59
2021/10/21 08:10:36;;;;;;;9.35;1.67;;;9.30;99.90;;;;;;5073202;28;20428;-57
2021/10/21 08:13:02;;;;;;;6.10;1.60;;;9.40;99.90;;;;;;5073274;28;20036;-59
2021/10/21 08:15:28;;;;;;;7.45;1.85;;;9.40;99.90;;;;;;5073274;28;20395;-59
2021/10/21 08:17:55;;;;;;;8.98;1.83;;;9.40;99.90;;;;;;5072881;28;20032;-59
2021/10/21 08:20:24;;;;;;;7.00;2.05;;;9.50;99.90;;;;;;5073071;28;20103;-60
2021/10/21 08:22:50;;;;;;;10.45;2.08;;;9.60;99.90;;;;;;5073450;28;20094;-60
2021/10/21 08:25:17;;;;;;;13.43;2.28;;;9.70;99.90;;;;;;5073124;28;20024;-59
2021/10/21 08:27:43;;;;;;;10.82;2.55;;;9.80;99.90;;;;;;5072770;28;20149;-60
2021/10/21 08:30:10;;;;;;;12.25;2.47;;;10.00;99.90;;;;;;5072731;28;20099;-59
2021/10/21 08:32:36;;;;;;;14.38;2.22;;;10.10;99.90;;;;;;5072782;28;20501;-58
2021/10/21 08:35:02;;;;;;;15.85;2.92;;;10.20;99.90;;;;;;5073133;28;20194;-59
2021/10/21 08:37:28;;;;;;;10.75;2.05;;;10.30;99.90;;;;;;5072577;28;20024;-59
2021/10/21 08:39:54;;;;;;;7.28;2.45;;;10.40;99.90;;;;;;5072605;28;20029;-59
2021/10/21 08:42:19;;;;;;;14.90;2.60;;;10.50;99.90;;;;;;5072749;28;20060;-59
2021/10/21 08:44:46;;;;;;;19.90;6.13;;;10.60;99.90;;;;;;5072202;28;20111;-59
2021/10/21 08:47:12;;;;;;;13.35;3.17;;;10.60;99.90;;;;;;5071892;28;20021;-60
2021/10/21 08:49:40;;;;;;;19.83;10.10;;;10.80;99.90;;;;;;5072630;28;20043;-60
2021/10/21 08:52:06;;;;;;;20.85;9.88;;;11.00;99.90;;;;;;5072449;28;20082;-58
2021/10/21 08:54:32;;;;;;;14.68;5.57;;;11.20;99.90;;;;;;5072399;28;20020;-60
2021/10/21 08:56:59;;;;;;;9.02;3.30;;;11.40;99.90;;;;;;5072153;28;20032;-59
2021/10/21 08:59:24;;;;;;;6.78;1.90;;;11.50;99.90;;;;;;5072117;28;20056;-60
2021/10/21 09:01:59;;;;;;;8.70;1.88;;;11.50;99.90;;;;;;5063077;28;20451;-60
2021/10/21 09:09:41;;;;;;;10.55;2.10;;;11.60;99.90;;;;;;5052233;28;20454;-60
2021/10/21 09:12:10;;;;;;;7.07;2.13;;;11.70;99.90;;;;;;5052134;28;20100;-59
2021/10/21 09:14:42;;;;;;;16.35;2.55;;;11.70;99.90;;;;;;5051951;28;20486;-60
2021/10/21 09:17:09;;;;;;;8.40;1.88;;;12.00;99.90;;;;;;5051876;28;20035;-58
2021/10/21 09:19:35;;;;;;;8.70;2.25;;;12.40;99.90;;;;;;5051779;28;20100;-60
2021/10/21 09:22:04;;;;;;;13.35;1.90;;;12.50;99.90;;;;;;5052307;28;20032;-60
2021/10/21 09:24:41;;;;;;;6.32;2.13;;;12.50;99.90;;;;;;5051855;28;20047;-60
2021/10/21 09:27:12;;;;;;;7.57;1.98;;;12.50;99.90;;;;;;5051717;28;20049;-60
2021/10/21 09:29:50;;;;;;;5.93;1.75;;;12.60;99.90;;;;;;5051667;28;20025;-60
2021/10/21 09:32:32;;;;;;;9.50;3.17;;;12.80;99.90;;;;;;5051754;28;20104;-60
2021/10/21 09:34:59;;;;;;;9.70;2.45;;;12.90;99.90;;;;;;5051784;28;20469;-59
2021/10/21 09:37:39;;;;;;;15.55;3.72;;;12.90;99.90;;;;;;5051540;28;20021;-60
2021/10/21 09:40:10;;;;;;;11.07;1.85;;;12.90;99.90;;;;;;5051671;28;20017;-60
2021/10/21 09:42:41;;;;;;;8.52;1.77;;;12.90;99.90;;;;;;5051568;28;20033;-60
2021/10/21 09:45:31;;;;;;;5.45;1.88;;;13.00;99.90;;;;;;5051763;28;20032;-60
2021/10/21 09:47:59;;;;;;;5.57;1.55;;;13.30;99.90;;;;;;5051299;28;20363;-60
2021/10/21 09:50:36;;;;;;;4.18;1.30;;;13.10;99.90;;;;;;5051434;28;20029;-59
2021/10/21 09:53:06;;;;;;;7.50;1.50;;;13.10;99.90;;;;;;5051320;28;20025;-60
2021/10/21 09:55:34;;;;;;;5.75;1.70;;;12.90;99.90;;;;;;5051619;28;20017;-60
2021/10/21 09:58:01;;;;;;;4.40;1.20;;;13.10;99.90;;;;;;5050862;28;20028;-60
2021/10/21 10:00:32;;;;;;;8.02;1.52;;;12.90;99.90;;;;;;5051160;28;20025;-60
2021/10/21 10:03:29;;;;;;;3.60;1.17;;;12.70;99.90;;;;;;5069454;28;20047;-60
2021/10/21 10:05:55;;;;;;;7.05;1.92;;;12.60;99.90;;;;;;5064887;28;20516;-60
2021/10/21 10:08:22;;;;;;;5.63;1.77;;;12.30;99.90;;;;;;5070469;28;20036;-59
2021/10/21 10:10:51;;;;;;;4.10;1.40;;;12.20;99.90;;;;;;5070748;28;20036;-60
2021/10/21 10:13:17;;;;;;;5.13;1.67;;;12.10;99.90;;;;;;5070651;28;20029;-60
2021/10/21 10:15:45;;;;;;;5.32;1.88;;;12.00;99.90;;;;;;5070892;28;20529;-58
2021/10/21 10:18:20;;;;;;;9.85;1.77;;;11.90;99.90;;;;;;5070564;28;20031;-59
2021/10/21 10:20:51;;;;;;;11.20;3.13;;;11.90;99.90;;;;;;5070809;28;20029;-58
2021/10/21 10:23:21;;;;;;;3.97;1.35;;;12.00;99.90;;;;;;5070706;28;20436;-59
2021/10/21 10:25:49;;;;;;;13.52;3.50;;;12.30;99.90;;;;;;5070703;28;20486;-59
2021/10/21 10:28:15;;;;;;;12.25;2.33;;;12.40;99.90;;;;;;5070449;28;20032;-58
2021/10/21 10:30:57;;;;;;;10.48;2.20;;;12.20;99.90;;;;;;5070496;28;20020;-60
2021/10/21 10:33:31;;;;;;;6.78;1.45;;;12.00;99.90;;;;;;5070667;28;20077;-59
2021/10/21 10:36:28;;;;;;;10.45;2.83;;;11.80;99.90;;;;;;5070664;28;20020;-59
2021/10/21 10:39:03;;;;;;;10.77;2.78;;;11.60;99.90;;;;;;5070500;28;20040;-59
2021/10/21 10:41:48;;;;;;;13.30;4.50;;;11.60;99.90;;;;;;5070814;28;20025;-58
2021/10/21 10:44:36;;;;;;;10.02;2.40;;;11.50;99.90;;;;;;5070526;28;20051;-59
2021/10/21 10:47:04;;;;;;;9.30;1.75;;;11.70;99.90;;;;;;5070557;28;20513;-57
2021/10/21 10:49:38;;;;;;;9.40;2.40;;;11.80;99.90;;;;;;5070531;28;20504;-57
2021/10/21 10:52:05;;;;;;;10.90;2.25;;;12.00;99.90;;;;;;5070597;28;20029;-59
2021/10/21 10:55:02;;;;;;;10.88;2.13;;;12.00;99.90;;;;;;5070642;28;20064;-58
2021/10/21 10:57:27;;;;;;;10.50;1.77;;;12.00;99.90;;;;;;5069416;28;20074;-59
2021/10/21 10:59:55;;;;;;;8.23;1.58;;;12.10;99.90;;;;;;5070426;28;20381;-59
2021/10/21 11:02:30;;;;;;;8.73;1.45;;;12.10;99.90;;;;;;5056801;28;20021;-58
2021/10/21 11:05:00;;;;;;;15.77;2.60;;;12.10;99.90;;;;;;5050474;28;20036;-57
2021/10/21 11:07:40;;;;;;;15.15;2.05;;;12.10;99.90;;;;;;5050115;28;20036;-59
2021/10/21 11:10:22;;;;;;;11.82;1.50;;;12.10;99.90;;;;;;5053501;28;20563;-60
2021/10/21 11:12:51;;;;;;;12.43;1.80;;;12.10;99.90;;;;;;5054387;28;20401;-59
2021/10/21 11:15:29;;;;;;;8.70;1.58;;;12.20;99.90;;;;;;5054408;28;20056;-59
2021/10/21 11:17:59;;;;;;;9.15;2.00;;;12.30;99.90;;;;;;5054029;28;20017;-60
2021/10/21 11:20:31;;;;;;;5.57;1.75;;;12.50;99.90;;;;;;5054439;28;20063;-60
2021/10/21 11:23:03;;;;;;;12.35;2.35;;;12.70;99.90;;;;;;5054260;28;20028;-60
2021/10/21 11:25:33;;;;;;;10.95;2.33;;;12.80;99.90;;;;;;5054346;28;20517;-60
2021/10/21 11:28:00;;;;;;;12.73;2.72;;;12.90;99.90;;;;;;5053744;28;20071;-59
2021/10/21 11:30:31;;;;;;;4.97;1.67;;;13.00;99.90;;;;;;5054118;28;20029;-60
2021/10/21 11:33:00;;;;;;;6.75;2.22;;;13.00;99.90;;;;;;5054005;28;20021;-59
2021/10/21 11:35:28;;;;;;;9.55;1.80;;;13.10;99.90;;;;;;5054295;28;20409;-60
2021/10/21 11:38:01;;;;;;;12.35;2.80;;;13.10;99.90;;;;;;5053651;28;20028;-60
2021/10/21 11:40:40;;;;;;;9.43;1.58;;;13.30;99.90;;;;;;5053843;28;20088;-59
2021/10/21 11:43:27;;;;;;;10.38;1.77;;;13.20;99.90;;;;;;5053825;28;20033;-60
2021/10/21 11:45:58;;;;;;;6.70;1.58;;;13.20;99.90;;;;;;5053818;28;20033;-58
2021/10/21 11:48:27;;;;;;;9.43;2.20;;;13.20;99.90;;;;;;5053488;28;20028;-60
2021/10/21 11:50:53;;;;;;;6.70;2.15;;;13.20;99.90;;;;;;5053433;28;20028;-60
2021/10/21 11:53:20;;;;;;;8.30;2.97;;;13.20;99.90;;;;;;5053900;28;20024;-59
2021/10/21 11:55:48;;;;;;;9.23;1.42;;;13.10;99.90;;;;;;5053756;28;20039;-59
2021/10/21 11:58:15;;;;;;;7.18;1.33;;;13.10;99.90;;;;;;5053491;28;20563;-60
2021/10/21 12:00:43;;;;;;;4.70;1.65;;;13.10;99.90;;;;;;5053656;28;20036;-60
2021/10/21 12:03:09;;;;;;;8.60;1.80;;;13.10;99.90;;;;;;5033273;28;20108;-60
2021/10/21 12:05:38;;;;;;;6.63;1.63;;;13.10;99.90;;;;;;5033547;28;20033;-59
2021/10/21 12:08:04;;;;;;;8.63;1.52;;;13.00;99.90;;;;;;5032982;28;20018;-58
2021/10/21 12:10:36;;;;;;;6.53;1.50;;;12.90;99.90;;;;;;5033251;28;20033;-60
2021/10/21 12:13:04;;;;;;;7.43;1.35;;;12.90;99.90;;;;;;5033259;28;20033;-60
2021/10/21 12:15:34;;;;;;;7.13;1.65;;;12.90;99.90;;;;;;5033374;28;20108;-59
2021/10/21 12:18:07;;;;;;;10.15;1.67;;;12.80;99.90;;;;;;5032969;28;20032;-59
2021/10/21 12:20:38;;;;;;;9.02;1.73;;;12.80;99.90;;;;;;5031986;28;20446;-59
2021/10/21 12:23:31;;;;;;;5.47;1.65;;;12.80;99.90;;;;;;5033173;28;20026;-60
2021/10/21 12:26:07;;;;;;;6.35;1.58;;;12.70;99.90;;;;;;5030761;28;20414;-60
2021/10/21 12:28:46;;;;;;;9.63;6.40;;;12.60;99.90;;;;;;5032859;28;20021;-60
2021/10/21 12:31:28;;;;;;;11.15;2.67;;;12.60;99.90;;;;;;5033101;28;20030;-60
2021/10/21 12:34:01;;;;;;;16.08;2.72;;;12.50;99.90;;;;;;5032787;28;20021;-60
2021/10/21 12:36:40;;;;;;;6.23;2.93;;;12.40;99.90;;;;;;5033122;28;20067;-60
2021/10/21 12:39:11;;;;;;;14.68;3.67;;;12.20;99.90;;;;;;5032626;28;20022;-59
2021/10/21 12:42:03;;;;;;;9.88;2.50;;;12.10;99.90;;;;;;5032951;28;20026;-60
2021/10/21 12:44:35;;;;;;;5.75;1.80;;;12.00;99.90;;;;;;5032719;28;20026;-59
2021/10/21 12:47:07;;;;;;;11.07;2.10;;;11.90;99.90;;;;;;5032779;28;20053;-58
2021/10/21 12:49:34;;;;;;;10.82;2.30;;;11.80;99.90;;;;;;5032490;28;20032;-59
2021/10/21 12:52:08;;;;;;;15.05;2.35;;;11.70;99.90;;;;;;5032636;28;20482;-58
2021/10/21 12:54:36;;;;;;;7.20;1.30;;;11.50;99.90;;;;;;5032627;28;20127;-58